sensor_id;sensor_type;location;lat;lon;timestamp;pressure;altitude;pressure_sealevel;temperature;humidity
25650;BME280;13505;45.196;5.696;2023-02-13T05:02:45;101163.47;;;2.86;66.57
25650;BME280;13505;45.196;5.696;2023-02-13T05:07:36;101168.84;;;2.94;66.72
25650;BME280;13505;45.196;5.696;2023-02-13T05:12:26;101173.16;;;2.93;67.23
25650;BME280;13505;45.196;5.696;2023-02-13T05:17:16;101170.34;;;2.81;67.61
25650;BME280;13505;45.196;5.696;2023-02-13T05:22:08;101171.00;;;2.69;68.64
25650;BME280;13505;45.196;5.696;2023-02-13T05:27:24;101169.88;;;2.55;69.60
25650;BME280;13505;45.196;5.696;2023-02-13T05:32:15;101180.19;;;2.50;70.16
25650;BME280;13505;45.196;5.696;2023-02-13T05:37:05;101182.75;;;2.47;70.14
25650;BME280;13505;45.196;5.696;2023-02-13T05:41:55;101174.94;;;2.48;70.90
25650;BME280;13505;45.196;5.696;2023-02-13T05:46:46;101179.72;;;2.27;71.00
25650;BME280;13505;45.196;5.696;2023-02-13T05:51:36;101179.88;;;2.33;70.64
25650;BME280;13505;45.196;5.696;2023-02-13T05:56:27;101180.06;;;2.44;69.25
25650;BME280;13505;45.196;5.696;2023-02-13T06:01:18;101179.72;;;2.27;68.76
25650;BME280;13505;45.196;5.696;2023-02-13T06:06:08;101180.47;;;2.19;69.14
25650;BME280;13505;45.196;5.696;2023-02-13T06:10:59;101173.38;;;2.57;65.70
25650;BME280;13505;45.196;5.696;2023-02-13T06:15:49;101179.38;;;2.53;64.57
25650;BME280;13505;45.196;5.696;2023-02-13T06:20:39;101191.34;;;2.43;64.16
25650;BME280;13505;45.196;5.696;2023-02-13T06:25:30;101189.38;;;2.31;64.59
25650;BME280;13505;45.196;5.696;2023-02-13T06:30:20;101183.31;;;2.32;64.51
25650;BME280;13505;45.196;5.696;2023-02-13T06:35:11;101191.75;;;2.20;65.75
25650;BME280;13505;45.196;5.696;2023-02-13T06:40:02;101195.69;;;2.44;65.55
25650;BME280;13505;45.196;5.696;2023-02-13T06:44:53;101199.22;;;2.46;66.28
25650;BME280;13505;45.196;5.696;2023-02-13T06:49:43;101206.00;;;2.37;70.36
25650;BME280;13505;45.196;5.696;2023-02-13T06:54:33;101212.53;;;2.17;71.44
25650;BME280;13505;45.196;5.696;2023-02-13T06:59:24;101215.53;;;1.95;72.31
25650;BME280;13505;45.196;5.696;2023-02-13T07:04:14;101217.94;;;2.28;71.99
25650;BME280;13505;45.196;5.696;2023-02-13T07:09:04;101223.34;;;2.37;71.28
25650;BME280;13505;45.196;5.696;2023-02-13T07:13:55;101227.09;;;2.50;70.74
25650;BME280;13505;45.196;5.696;2023-02-13T07:18:45;101229.66;;;2.47;70.81
25650;BME280;13505;45.196;5.696;2023-02-13T07:23:36;101224.97;;;2.30;71.67
25650;BME280;13505;45.196;5.696;2023-02-13T07:28:27;101234.00;;;2.48;71.41
25650;BME280;13505;45.196;5.696;2023-02-13T07:33:17;101237.91;;;2.69;70.33
25650;BME280;13505;45.196;5.696;2023-02-13T07:38:08;101240.56;;;2.72;70.16
25650;BME280;13505;45.196;5.696;2023-02-13T07:42:59;101235.56;;;2.83;69.83
25650;BME280;13505;45.196;5.696;2023-02-13T07:47:50;101241.94;;;3.00;69.09
25650;BME280;13505;45.196;5.696;2023-02-13T07:52:41;101237.66;;;3.04;68.81
25650;BME280;13505;45.196;5.696;2023-02-13T07:57:32;101248.59;;;3.32;67.35
25650;BME280;13505;45.196;5.696;2023-02-13T08:02:22;101232.66;;;3.69;65.68
25650;BME280;13505;45.196;5.696;2023-02-13T08:07:15;101237.09;;;3.74;64.87
25650;BME280;13505;45.196;5.696;2023-02-13T08:12:07;101234.81;;;3.96;63.34
25650;BME280;13505;45.196;5.696;2023-02-13T08:16:58;101243.38;;;3.87;61.40
25650;BME280;13505;45.196;5.696;2023-02-13T08:21:50;101241.81;;;4.00;61.41
25650;BME280;13505;45.196;5.696;2023-02-13T08:26:40;101236.59;;;4.00;61.47
25650;BME280;13505;45.196;5.696;2023-02-13T08:31:31;101236.13;;;4.29;60.18
25650;BME280;13505;45.196;5.696;2023-02-13T08:36:22;101228.59;;;4.56;59.74
25650;BME280;13505;45.196;5.696;2023-02-13T08:41:13;101228.19;;;4.99;59.04
25650;BME280;13505;45.196;5.696;2023-02-13T08:46:03;101230.91;;;5.10;57.78
25650;BME280;13505;45.196;5.696;2023-02-13T08:50:54;101225.63;;;5.03;57.59
25650;BME280;13505;45.196;5.696;2023-02-13T08:55:56;101214.50;;;5.26;57.51
25650;BME280;13505;45.196;5.696;2023-02-13T09:00:47;101219.13;;;5.58;56.31
25650;BME280;13505;45.196;5.696;2023-02-13T09:05:37;101205.41;;;5.95;55.27
25650;BME280;13505;45.196;5.696;2023-02-13T09:10:28;101215.88;;;5.97;55.51
25650;BME280;13505;45.196;5.696;2023-02-13T09:15:18;101214.28;;;6.16;54.98
25650;BME280;13505;45.196;5.696;2023-02-13T09:20:09;101204.72;;;6.31;55.50
25650;BME280;13505;45.196;5.696;2023-02-13T09:25:01;101203.09;;;6.61;54.98
25650;BME280;13505;45.196;5.696;2023-02-13T09:29:53;101203.84;;;6.32;55.21
25650;BME280;13505;45.196;5.696;2023-02-13T09:34:43;101195.25;;;6.75;53.99
25650;BME280;13505;45.196;5.696;2023-02-13T09:39:34;101194.41;;;6.96;53.49
25650;BME280;13505;45.196;5.696;2023-02-13T09:44:29;101189.16;;;7.01;53.68
25650;BME280;13505;45.196;5.696;2023-02-13T09:49:25;101194.44;;;7.46;52.56
25650;BME280;13505;45.196;5.696;2023-02-13T09:54:19;101196.13;;;7.72;51.49
25650;BME280;13505;45.196;5.696;2023-02-13T10:04:38;101180.22;;;8.24;50.21
25650;BME280;13505;45.196;5.696;2023-02-13T10:10:00;101178.38;;;8.45;49.02
25650;BME280;13505;45.196;5.696;2023-02-13T10:15:05;101174.53;;;9.02;48.58
25650;BME280;13505;45.196;5.696;2023-02-13T10:20:17;101174.69;;;8.80;47.83
25650;BME280;13505;45.196;5.696;2023-02-13T10:25:59;101164.91;;;8.98;47.85
25650;BME280;13505;45.196;5.696;2023-02-13T10:30:55;101156.88;;;9.17;47.69
25650;BME280;13505;45.196;5.696;2023-02-13T10:56:11;101145.94;;;10.34;44.17
25650;BME280;13505;45.196;5.696;2023-02-13T11:01:18;101135.47;;;10.28;43.54
25650;BME280;13505;45.196;5.696;2023-02-13T11:06:14;101135.13;;;10.57;43.87
25650;BME280;13505;45.196;5.696;2023-02-13T11:11:35;101121.31;;;10.33;42.98
25650;BME280;13505;45.196;5.696;2023-02-13T11:16:26;101121.19;;;11.02;43.05
25650;BME280;13505;45.196;5.696;2023-02-13T11:21:21;101115.34;;;10.85;42.90
25650;BME280;13505;45.196;5.696;2023-02-13T11:26:35;101118.25;;;11.21;42.07
25650;BME280;13505;45.196;5.696;2023-02-13T11:31:33;101112.22;;;11.63;41.05
25650;BME280;13505;45.196;5.696;2023-02-13T11:36:32;101106.84;;;12.10;40.60
25650;BME280;13505;45.196;5.696;2023-02-13T11:41:23;101096.38;;;12.47;41.02
25650;BME280;13505;45.196;5.696;2023-02-13T11:46:24;101096.91;;;12.61;40.86
25650;BME280;13505;45.196;5.696;2023-02-13T11:51:15;101086.06;;;12.72;39.69
25650;BME280;13505;45.196;5.696;2023-02-13T11:56:14;101080.28;;;12.56;40.24
25650;BME280;13505;45.196;5.696;2023-02-13T12:11:01;101064.41;;;12.56;42.17
25650;BME280;13505;45.196;5.696;2023-02-13T12:15:59;101060.13;;;12.11;41.67
25650;BME280;13505;45.196;5.696;2023-02-13T12:26:10;101040.28;;;13.02;41.93
25650;BME280;13505;45.196;5.696;2023-02-13T12:36:20;101027.78;;;12.37;39.50
25650;BME280;13505;45.196;5.696;2023-02-13T12:57:05;101003.09;;;13.06;38.30
25650;BME280;13505;45.196;5.696;2023-02-13T13:02:12;101001.47;;;13.32;36.08
25650;BME280;13505;45.196;5.696;2023-02-13T13:27:23;100963.06;;;13.79;35.81
25650;BME280;13505;45.196;5.696;2023-02-13T13:32:18;100952.94;;;13.92;35.89
25650;BME280;13505;45.196;5.696;2023-02-13T13:42:15;100945.78;;;13.65;34.10
25650;BME280;13505;45.196;5.696;2023-02-13T13:52:29;100924.56;;;14.21;35.75
25650;BME280;13505;45.196;5.696;2023-02-13T13:57:24;100922.50;;;14.31;34.76
25650;BME280;13505;45.196;5.696;2023-02-13T14:07:15;100922.50;;;13.75;35.56
25650;BME280;13505;45.196;5.696;2023-02-13T14:17:15;100902.50;;;14.20;35.92
25650;BME280;13505;45.196;5.696;2023-02-13T14:22:26;100902.91;;;14.33;35.30
25650;BME280;13505;45.196;5.696;2023-02-13T14:27:22;100893.88;;;14.14;34.62
25650;BME280;13505;45.196;5.696;2023-02-13T14:32:21;100893.72;;;13.90;35.40
25650;BME280;13505;45.196;5.696;2023-02-13T14:37:20;100887.09;;;13.76;35.24
25650;BME280;13505;45.196;5.696;2023-02-13T14:42:22;100883.09;;;13.91;35.77
25650;BME280;13505;45.196;5.696;2023-02-13T14:52:17;100878.94;;;13.54;34.92
25650;BME280;13505;45.196;5.696;2023-02-13T14:57:18;100870.84;;;13.59;34.58
25650;BME280;13505;45.196;5.696;2023-02-13T15:07:13;100865.69;;;13.54;35.49
25650;BME280;13505;45.196;5.696;2023-02-13T15:12:26;100866.31;;;13.62;33.76
25650;BME280;13505;45.196;5.696;2023-02-13T15:17:21;100858.28;;;13.65;33.44
25650;BME280;13505;45.196;5.696;2023-02-13T15:22:29;100858.72;;;13.51;35.25
25650;BME280;13505;45.196;5.696;2023-02-13T15:27:25;100858.28;;;13.35;34.41
25650;BME280;13505;45.196;5.696;2023-02-13T15:32:19;100846.47;;;13.47;33.66
25650;BME280;13505;45.196;5.696;2023-02-13T15:37:19;100856.28;;;13.44;34.06
25650;BME280;13505;45.196;5.696;2023-02-13T15:42:10;100850.13;;;13.42;34.13
25650;BME280;13505;45.196;5.696;2023-02-13T15:47:04;100847.59;;;13.38;34.14
25650;BME280;13505;45.196;5.696;2023-02-13T15:52:31;100851.94;;;13.41;35.11
25650;BME280;13505;45.196;5.696;2023-02-13T15:57:24;100853.78;;;13.39;35.54
25650;BME280;13505;45.196;5.696;2023-02-13T16:02:40;100852.47;;;13.24;35.11
25650;BME280;13505;45.196;5.696;2023-02-13T16:07:49;100863.75;;;12.99;36.02
25650;BME280;13505;45.196;5.696;2023-02-13T16:12:46;100857.59;;;12.67;37.48
25650;BME280;13505;45.196;5.696;2023-02-13T16:17:38;100864.41;;;12.44;38.77
25650;BME280;13505;45.196;5.696;2023-02-13T16:27:25;100861.41;;;11.87;39.82
25650;BME280;13505;45.196;5.696;2023-02-13T16:32:30;100874.44;;;11.57;42.13
25650;BME280;13505;45.196;5.696;2023-02-13T16:37:29;100869.63;;;11.37;42.34
25650;BME280;13505;45.196;5.696;2023-02-13T16:42:20;100876.09;;;11.22;42.34
25650;BME280;13505;45.196;5.696;2023-02-13T16:47:22;100880.97;;;10.99;42.78
25650;BME280;13505;45.196;5.696;2023-02-13T16:52:20;100884.19;;;10.70;44.50
25650;BME280;13505;45.196;5.696;2023-02-13T17:02:09;100898.97;;;10.27;46.33
25650;BME280;13505;45.196;5.696;2023-02-13T17:07:01;100907.97;;;10.15;46.18
25650;BME280;13505;45.196;5.696;2023-02-13T17:11:52;100914.31;;;10.03;47.61
25650;BME280;13505;45.196;5.696;2023-02-13T17:16:42;100919.78;;;9.90;49.09
25650;BME280;13505;45.196;5.696;2023-02-13T17:21:33;100924.31;;;9.81;48.44
25650;BME280;13505;45.196;5.696;2023-02-13T17:26:23;100937.63;;;9.71;48.98
25650;BME280;13505;45.196;5.696;2023-02-13T17:31:14;100943.06;;;9.60;48.78
25650;BME280;13505;45.196;5.696;2023-02-13T17:36:05;100947.59;;;9.51;48.81
25650;BME280;13505;45.196;5.696;2023-02-13T17:40:55;100952.03;;;9.45;50.83
25650;BME280;13505;45.196;5.696;2023-02-13T17:45:46;100949.56;;;9.33;51.51
25650;BME280;13505;45.196;5.696;2023-02-13T17:50:37;100960.25;;;9.19;50.48
25650;BME280;13505;45.196;5.696;2023-02-13T17:55:30;100963.03;;;9.06;50.18
25650;BME280;13505;45.196;5.696;2023-02-13T18:00:22;100964.09;;;8.87;50.53
25650;BME280;13505;45.196;5.696;2023-02-13T18:05:14;100964.19;;;8.76;49.76
25650;BME280;13505;45.196;5.696;2023-02-13T18:10:17;100965.19;;;8.64;50.00
25650;BME280;13505;45.196;5.696;2023-02-13T18:15:08;100968.81;;;8.52;50.48
25650;BME280;13505;45.196;5.696;2023-02-13T18:19:59;100967.13;;;8.40;51.54
25650;BME280;13505;45.196;5.696;2023-02-13T18:24:49;100962.81;;;8.31;50.40
25650;BME280;13505;45.196;5.696;2023-02-13T18:29:39;100962.97;;;8.11;51.69
25650;BME280;13505;45.196;5.696;2023-02-13T18:34:30;100977.03;;;8.05;51.43
25650;BME280;13505;45.196;5.696;2023-02-13T18:39:20;100979.75;;;7.87;52.36
25650;BME280;13505;45.196;5.696;2023-02-13T18:44:11;100985.91;;;7.84;51.64
25650;BME280;13505;45.196;5.696;2023-02-13T18:49:01;100979.56;;;8.19;50.33
25650;BME280;13505;45.196;5.696;2023-02-13T18:53:52;100976.06;;;8.19;49.66
25650;BME280;13505;45.196;5.696;2023-02-13T18:58:42;100991.75;;;8.27;48.98
25650;BME280;13505;45.196;5.696;2023-02-13T19:03:32;100995.28;;;8.27;48.73
25650;BME280;13505;45.196;5.696;2023-02-13T19:08:23;100990.75;;;8.46;47.76
25650;BME280;13505;45.196;5.696;2023-02-13T19:13:14;100995.19;;;8.38;48.22
25650;BME280;13505;45.196;5.696;2023-02-13T19:18:05;101001.47;;;8.17;48.34
25650;BME280;13505;45.196;5.696;2023-02-13T19:22:55;101013.88;;;7.98;49.51
25650;BME280;13505;45.196;5.696;2023-02-13T19:27:46;101016.56;;;7.88;49.58
25650;BME280;13505;45.196;5.696;2023-02-13T19:32:36;101017.44;;;7.84;49.65
25650;BME280;13505;45.196;5.696;2023-02-13T19:37:26;101021.75;;;7.96;48.96
25650;BME280;13505;45.196;5.696;2023-02-13T19:42:17;101030.53;;;7.93;48.82
25650;BME280;13505;45.196;5.696;2023-02-13T19:47:07;101029.69;;;7.88;48.77
25650;BME280;13505;45.196;5.696;2023-02-13T19:51:57;101035.09;;;7.57;50.26
25650;BME280;13505;45.196;5.696;2023-02-13T19:56:48;101027.16;;;7.71;48.98
25650;BME280;13505;45.196;5.696;2023-02-13T20:01:39;101040.31;;;7.60;48.74
25650;BME280;13505;45.196;5.696;2023-02-13T20:06:34;101043.88;;;7.40;50.22
25650;BME280;13505;45.196;5.696;2023-02-13T20:11:25;101050.91;;;7.35;50.60
25650;BME280;13505;45.196;5.696;2023-02-13T20:16:15;101053.47;;;7.57;49.24
25650;BME280;13505;45.196;5.696;2023-02-13T20:21:08;101055.28;;;7.33;49.86
25650;BME280;13505;45.196;5.696;2023-02-13T20:26:07;101061.44;;;7.15;50.93
25650;BME280;13505;45.196;5.696;2023-02-13T20:30:58;101066.69;;;7.28;50.46
25650;BME280;13505;45.196;5.696;2023-02-13T20:35:49;101064.81;;;7.58;53.51
25650;BME280;13505;45.196;5.696;2023-02-13T20:40:40;101072.78;;;7.33;50.38
25650;BME280;13505;45.196;5.696;2023-02-13T20:45:30;101082.44;;;7.28;51.01
25650;BME280;13505;45.196;5.696;2023-02-13T20:50:20;101082.41;;;7.34;50.66
25650;BME280;13505;45.196;5.696;2023-02-13T20:55:11;101077.16;;;7.35;50.94
25650;BME280;13505;45.196;5.696;2023-02-13T21:00:03;101086.81;;;7.22;51.00
25650;BME280;13505;45.196;5.696;2023-02-13T21:04:54;101081.53;;;7.21;50.54
25650;BME280;13505;45.196;5.696;2023-02-13T21:09:45;101087.66;;;7.24;50.71
25650;BME280;13505;45.196;5.696;2023-02-13T21:14:36;101089.41;;;7.36;50.60
25650;BME280;13505;45.196;5.696;2023-02-13T21:19:26;101083.28;;;7.42;49.54
25650;BME280;13505;45.196;5.696;2023-02-13T21:24:19;101083.28;;;7.39;49.50
25650;BME280;13505;45.196;5.696;2023-02-13T21:29:10;101077.16;;;7.31;50.09
25650;BME280;13505;45.196;5.696;2023-02-13T21:34:06;101074.53;;;7.32;49.91
25650;BME280;13505;45.196;5.696;2023-02-13T21:38:57;101077.16;;;7.34;50.06
25650;BME280;13505;45.196;5.696;2023-02-13T21:43:48;101078.91;;;7.27;49.78
25650;BME280;13505;45.196;5.696;2023-02-13T21:48:39;101077.16;;;7.31;49.71
25650;BME280;13505;45.196;5.696;2023-02-13T21:53:30;101071.88;;;7.48;48.20
25650;BME280;13505;45.196;5.696;2023-02-13T21:58:20;101075.34;;;7.54;47.62
25650;BME280;13505;45.196;5.696;2023-02-13T22:03:11;101079.75;;;7.49;47.78
25650;BME280;13505;45.196;5.696;2023-02-13T22:08:01;101086.81;;;7.19;49.26
25650;BME280;13505;45.196;5.696;2023-02-13T22:13:00;101077.19;;;7.09;50.26
25650;BME280;13505;45.196;5.696;2023-02-13T22:17:51;101085.06;;;6.81;50.36
25650;BME280;13505;45.196;5.696;2023-02-13T22:22:41;101079.81;;;6.67;51.40
25650;BME280;13505;45.196;5.696;2023-02-13T22:27:31;101078.09;;;6.86;50.05
25650;BME280;13505;45.196;5.696;2023-02-13T22:32:22;101071.09;;;6.91;50.70
25650;BME280;13505;45.196;5.696;2023-02-13T22:37:12;101064.94;;;6.97;50.72
25650;BME280;13505;45.196;5.696;2023-02-13T22:42:02;101070.19;;;7.09;50.28
25650;BME280;13505;45.196;5.696;2023-02-13T22:46:53;101070.19;;;7.11;49.19
25650;BME280;13505;45.196;5.696;2023-02-13T22:51:43;101076.34;;;7.02;49.75
25650;BME280;13505;45.196;5.696;2023-02-13T22:56:33;101081.56;;;6.90;49.62
